createdAt,value
2017-10-23T00:00:40.779Z,100842.71
2017-10-23T00:03:09.263Z,100845.43
2017-10-23T00:05:37.655Z,100842.65
2017-10-23T00:08:05.971Z,100839.52
2017-10-23T00:10:34.316Z,100845.66
2017-10-23T00:13:02.641Z,100842.88
2017-10-23T00:15:31.014Z,100842.65
2017-10-23T00:17:59.320Z,100842.65
2017-10-23T00:20:27.630Z,100839.28
2017-10-23T00:22:55.926Z,100846.82
2017-10-23T00:25:24.292Z,100848.31
2017-10-23T00:27:52.879Z,100846.34
2017-10-23T00:30:21.178Z,100852.90
2017-10-23T00:32:49.448Z,100853.38
2017-10-23T00:35:17.743Z,100851.17
2017-10-23T00:37:46.055Z,100852.22
2017-10-23T00:40:14.393Z,100850.42
2017-10-23T00:42:42.711Z,100854.83
2017-10-23T00:45:11.023Z,100852.97
2017-10-23T00:47:39.323Z,100850.08
2017-10-23T00:50:07.767Z,100847.40
2017-10-23T00:52:36.236Z,100849.27
2017-10-23T00:55:04.637Z,100844.68
2017-10-23T00:57:33.145Z,100852.97
2017-10-23T01:00:01.432Z,100852.86
2017-10-23T01:02:29.828Z,100845.91
2017-10-23T01:04:58.107Z,100848.72
2017-10-23T01:07:26.464Z,100849.12
2017-10-23T01:09:54.753Z,100843.53
2017-10-23T01:12:23.123Z,100843.13
2017-10-23T01:14:51.399Z,100843.06
2017-10-23T01:17:19.786Z,100836.34
2017-10-23T01:19:48.063Z,100835.36
2017-10-23T01:22:16.415Z,100825.71
2017-10-23T01:24:44.710Z,100828.50
2017-10-23T01:27:13.249Z,100830.03
2017-10-23T01:29:41.763Z,100829.79
2017-10-23T01:32:10.074Z,100835.77
2017-10-23T01:34:38.376Z,100835.36
2017-10-23T01:37:06.707Z,100843.39
2017-10-23T01:39:34.984Z,100847.70
2017-10-23T01:42:03.389Z,100850.90
2017-10-23T01:44:32.045Z,100847.06
2017-10-23T01:47:00.351Z,100843.00
2017-10-23T01:49:28.803Z,100843.58
2017-10-23T01:51:57.316Z,100849.75
2017-10-23T01:54:25.863Z,100848.62
2017-10-23T01:56:54.155Z,100855.41
2017-10-23T01:59:22.519Z,100856.73
2017-10-23T02:01:50.912Z,100861.31
2017-10-23T02:04:19.291Z,100868.23
2017-10-23T02:06:47.787Z,100866.23
2017-10-23T02:09:16.085Z,100868.23
2017-10-23T02:11:44.380Z,100868.11
2017-10-23T02:14:12.663Z,100861.63
2017-10-23T02:16:41.096Z,100866.03
2017-10-23T02:19:09.554Z,100867.19
2017-10-23T02:21:37.848Z,100866.72
2017-10-23T02:24:06.159Z,100867.46
2017-10-23T02:26:34.464Z,100874.73
2017-10-23T02:29:02.747Z,100880.39
2017-10-23T02:31:31.090Z,100884.40
2017-10-23T02:33:59.352Z,100881.37
2017-10-23T02:36:27.660Z,100883.58
2017-10-23T02:38:55.947Z,100888.57
2017-10-23T02:41:24.312Z,100891.19
2017-10-23T02:43:52.703Z,100891.42
2017-10-23T02:46:21.000Z,100893.63
2017-10-23T02:48:49.263Z,100896.68
2017-10-23T02:51:17.589Z,100895.90
2017-10-23T02:53:46.015Z,100894.03
2017-10-23T02:56:14.323Z,100897.09
2017-10-23T02:58:42.797Z,100903.30
2017-10-23T03:01:11.119Z,100907.20
2017-10-23T03:03:39.419Z,100900.24
2017-10-23T03:06:07.701Z,100904.28
2017-10-23T03:08:36.000Z,100907.64
2017-10-23T03:11:04.299Z,100907.41
2017-10-23T03:13:32.827Z,100905.64
2017-10-23T03:16:01.271Z,100900.24
2017-10-23T03:18:29.576Z,100905.23
2017-10-23T03:20:57.928Z,100908.05
2017-10-23T03:23:26.375Z,100907.95
2017-10-23T03:25:54.700Z,100908.93
2017-10-23T03:28:23.023Z,100907.20
2017-10-23T03:30:51.336Z,100905.64
2017-10-23T03:33:19.637Z,100907.13
2017-10-23T03:35:47.932Z,100912.45
2017-10-23T03:38:16.193Z,100912.39
2017-10-23T03:40:44.495Z,100920.64
2017-10-23T03:43:12.842Z,100923.18
2017-10-23T03:45:41.305Z,100925.39
2017-10-23T03:48:09.598Z,100924.41
2017-10-23T03:50:37.912Z,100921.63
2017-10-23T03:53:06.287Z,100924.41
2017-10-23T03:55:34.804Z,100926.78
2017-10-23T03:58:03.180Z,100924.53
2017-10-23T04:00:31.567Z,100925.34
2017-10-23T04:03:00.016Z,100932.98
2017-10-23T04:05:28.311Z,100932.34
2017-10-23T04:07:56.679Z,100931.19
2017-10-23T04:10:24.978Z,100936.52
2017-10-23T04:12:53.300Z,100933.90
2017-10-23T04:15:21.619Z,100938.89
2017-10-23T04:17:49.919Z,100939.88
2017-10-23T04:20:18.231Z,100940.41
2017-10-23T04:22:46.605Z,100937.50
2017-10-23T04:25:15.065Z,100947.20
2017-10-23T04:27:43.379Z,100946.02
2017-10-23T04:30:11.716Z,100947.95
2017-10-23T04:32:40.011Z,100957.11
2017-10-23T04:35:08.464Z,100955.95
2017-10-23T04:37:36.715Z,100962.19
2017-10-23T04:40:05.116Z,100958.66
2017-10-23T04:42:33.499Z,100956.73
2017-10-23T04:45:01.812Z,100960.70
2017-10-23T04:47:30.171Z,100964.23
2017-10-23T04:49:59.480Z,100957.27
2017-10-23T04:52:27.857Z,100949.60
2017-10-23T04:54:56.122Z,100953.37
2017-10-23T04:57:24.464Z,100953.37
2017-10-23T04:59:52.718Z,100962.32
2017-10-23T05:02:21.055Z,100959.58
2017-10-23T05:04:49.320Z,100957.34
2017-10-23T05:07:17.676Z,100961.28
2017-10-23T05:09:45.965Z,100954.02
2017-10-23T05:12:14.321Z,100953.16
2017-10-23T05:14:42.618Z,100958.02
2017-10-23T05:17:10.960Z,100960.46
2017-10-23T05:19:39.325Z,100964.56
2017-10-23T05:22:07.676Z,100967.11
2017-10-23T05:24:35.972Z,100979.02
2017-10-23T05:27:04.496Z,100973.45
2017-10-23T05:29:32.965Z,100975.25
2017-10-23T05:32:01.340Z,100972.09
2017-10-23T05:34:29.827Z,100974.55
2017-10-23T05:36:58.267Z,100980.58
2017-10-23T05:39:26.771Z,100984.52
2017-10-23T05:41:55.059Z,100983.06
2017-10-23T05:44:23.615Z,100983.41
2017-10-23T05:46:51.947Z,100991.17
2017-10-23T05:49:20.395Z,100992.80
2017-10-23T05:51:48.716Z,100998.21
2017-10-23T05:54:16.990Z,101001.00
2017-10-23T05:56:45.479Z,100998.83
2017-10-23T05:59:13.779Z,101005.98
2017-10-23T06:01:42.206Z,101006.19
2017-10-23T06:04:10.581Z,101006.43
2017-10-23T06:06:38.997Z,101013.69
2017-10-23T06:09:07.416Z,101008.12
2017-10-23T06:11:35.940Z,101016.92
2017-10-23T06:14:04.270Z,101020.52
2017-10-23T06:16:32.686Z,101020.77
2017-10-23T06:19:01.313Z,101026.39
2017-10-23T06:21:30.083Z,101030.16
2017-10-23T06:23:58.360Z,101030.84
2017-10-23T06:26:26.803Z,101028.88
2017-10-23T06:28:55.268Z,101033.97
2017-10-23T06:31:23.584Z,101031.48
2017-10-23T06:33:52.080Z,101035.25
2017-10-23T06:36:20.405Z,101032.88
2017-10-23T06:38:48.832Z,101034.27
2017-10-23T06:41:17.273Z,101026.73
2017-10-23T06:43:45.735Z,101032.95
2017-10-23T06:46:14.156Z,101033.16
2017-10-23T06:48:42.687Z,101032.38
2017-10-23T06:51:10.996Z,101036.75
2017-10-23T06:53:39.297Z,101033.56
2017-10-23T06:56:07.791Z,101036.58
2017-10-23T06:58:36.216Z,101039.20
2017-10-23T07:01:04.526Z,101039.60
2017-10-23T07:03:32.804Z,101035.43
2017-10-23T07:06:01.136Z,101042.62
2017-10-23T07:08:29.682Z,101037.47
2017-10-23T07:10:59.464Z,101041.41
2017-10-23T07:13:28.457Z,101039.44
2017-10-23T07:15:57.293Z,101046.27
2017-10-23T07:18:27.711Z,101045.45
2017-10-23T07:20:56.277Z,101044.47
2017-10-23T07:23:24.592Z,101052.03
2017-10-23T07:25:53.012Z,101052.41
2017-10-23T07:28:21.331Z,101052.41
2017-10-23T07:30:49.651Z,101052.41
2017-10-23T07:33:17.971Z,101059.16
2017-10-23T07:35:46.665Z,101056.55
2017-10-23T07:38:15.847Z,101054.75
2017-10-23T07:40:44.256Z,101064.66
2017-10-23T07:43:12.759Z,101062.86
2017-10-23T07:45:41.271Z,101067.20
2017-10-23T07:48:09.724Z,101072.53
2017-10-23T07:50:38.231Z,101069.74
2017-10-23T07:53:07.373Z,101067.77
2017-10-23T07:55:35.885Z,101067.37
2017-10-23T07:58:04.165Z,101069.98
2017-10-23T08:00:32.509Z,101066.45
2017-10-23T08:03:00.937Z,101068.59
2017-10-23T08:05:29.272Z,101069.07
2017-10-23T08:07:57.568Z,101069.41
2017-10-23T08:10:26.076Z,101066.45
2017-10-23T08:12:54.363Z,101066.22
2017-10-23T08:15:22.828Z,101064.83
2017-10-23T08:17:51.189Z,101060.41
2017-10-23T08:20:19.744Z,101071.44
2017-10-23T08:22:48.021Z,101068.25
2017-10-23T08:25:16.352Z,101069.58
2017-10-23T08:27:44.616Z,101070.32
2017-10-23T08:30:12.928Z,101075.14
2017-10-23T08:32:41.284Z,101071.05
2017-10-23T08:35:09.707Z,101080.27
2017-10-23T08:37:38.093Z,101077.42
2017-10-23T08:40:06.416Z,101075.70
2017-10-23T08:42:35.025Z,101077.15
2017-10-23T08:45:03.630Z,101079.70
2017-10-23T08:47:32.052Z,101075.45
2017-10-23T08:50:00.496Z,101081.56
2017-10-23T08:52:28.932Z,101081.73
2017-10-23T08:54:57.271Z,101073.78
2017-10-23T08:57:25.805Z,101076.39
2017-10-23T08:59:54.118Z,101078.19
2017-10-23T09:02:22.464Z,101070.86
2017-10-23T09:04:51.006Z,101075.75
2017-10-23T09:07:20.134Z,101081.48
2017-10-23T09:09:48.530Z,101079.52
2017-10-23T09:12:16.873Z,101080.22
2017-10-23T09:14:45.233Z,101087.63
2017-10-23T09:17:13.572Z,101082.41
2017-10-23T09:19:41.873Z,101082.30
2017-10-23T09:22:10.212Z,101082.30
2017-10-23T09:24:39.128Z,101082.87
2017-10-23T09:27:08.076Z,101094.17
2017-10-23T09:29:36.363Z,101090.98
2017-10-23T09:32:04.672Z,101086.94
2017-10-23T09:34:32.935Z,101082.22
2017-10-23T09:37:01.317Z,101090.77
2017-10-23T09:39:29.696Z,101091.11
2017-10-23T09:41:58.127Z,101095.11
2017-10-23T09:44:26.414Z,101092.84
2017-10-23T09:46:54.783Z,101096.26
2017-10-23T09:49:23.055Z,101095.17
2017-10-23T09:51:51.359Z,101094.16
2017-10-23T09:54:19.615Z,101098.13
2017-10-23T09:56:48.088Z,101097.59
2017-10-23T09:59:16.509Z,101100.45
2017-10-23T10:01:45.133Z,101104.14
2017-10-23T10:04:13.484Z,101103.45
2017-10-23T10:06:41.800Z,101103.90
2017-10-23T10:09:10.294Z,101107.46
2017-10-23T10:11:38.949Z,101102.56
2017-10-23T10:14:07.243Z,101098.13
2017-10-23T10:16:36.463Z,101106.00
2017-10-23T10:19:05.757Z,101106.81
2017-10-23T10:21:34.347Z,101112.05
2017-10-23T10:24:02.681Z,101108.61
2017-10-23T10:26:32.192Z,101116.22
2017-10-23T10:29:00.771Z,101119.81
2017-10-23T10:31:29.162Z,101119.58
2017-10-23T10:33:57.436Z,101117.95
2017-10-23T10:36:25.739Z,101119.17
2017-10-23T10:38:54.096Z,101119.91
2017-10-23T10:41:22.433Z,101117.30
2017-10-23T10:43:51.772Z,101121.87
2017-10-23T10:46:20.360Z,101114.47
2017-10-23T10:48:48.928Z,101115.67
2017-10-23T10:51:17.319Z,101112.06
2017-10-23T10:53:45.704Z,101113.45
2017-10-23T10:56:14.183Z,101112.77
2017-10-23T10:58:42.461Z,101112.19
2017-10-23T11:01:10.829Z,101109.41
2017-10-23T11:03:39.100Z,101120.13
2017-10-23T11:06:07.581Z,101121.86
2017-10-23T11:08:35.878Z,101119.20
2017-10-23T11:11:04.360Z,101120.27
2017-10-23T11:13:32.649Z,101121.70
2017-10-23T11:16:01.135Z,101119.90
2017-10-23T11:18:29.594Z,101117.19
2017-10-23T11:20:57.894Z,101119.97
2017-10-23T11:23:26.393Z,101121.03
2017-10-23T11:25:54.719Z,101122.94
2017-10-23T11:28:23.046Z,101126.14
2017-10-23T11:30:51.335Z,101125.55
2017-10-23T11:33:19.605Z,101126.20
2017-10-23T11:35:47.921Z,101130.94
2017-10-23T11:38:16.220Z,101127.53
2017-10-23T11:40:44.515Z,101120.00
2017-10-23T11:43:12.920Z,101135.11
2017-10-23T11:45:41.212Z,101134.95
2017-10-23T11:48:09.497Z,101130.60
2017-10-23T11:50:38.155Z,101129.04
2017-10-23T11:53:07.130Z,101131.83
2017-10-23T11:55:35.583Z,101128.39
2017-10-23T11:58:03.896Z,101131.58
2017-10-23T12:00:32.351Z,101135.02
2017-10-23T12:03:00.683Z,101133.22
2017-10-23T12:05:29.003Z,101132.06
2017-10-23T12:07:57.303Z,101134.44
2017-10-23T12:10:25.647Z,101137.22
2017-10-23T12:12:54.113Z,101133.13
2017-10-23T12:15:22.424Z,101133.50
2017-10-23T12:17:50.751Z,101140.53
2017-10-23T12:20:19.068Z,101144.53
2017-10-23T12:22:47.723Z,101140.77
2017-10-23T12:25:16.390Z,101140.59
2017-10-23T12:27:44.764Z,101143.55
2017-10-23T12:30:13.055Z,101149.19
2017-10-23T12:32:41.460Z,101151.56
2017-10-23T12:35:10.243Z,101148.59
2017-10-23T12:37:38.607Z,101151.20
2017-10-23T12:40:07.015Z,101152.66
2017-10-23T12:42:35.364Z,101152.91
2017-10-23T12:45:03.742Z,101153.72
2017-10-23T12:47:32.231Z,101149.17
2017-10-23T12:50:00.692Z,101154.81
2017-10-23T12:52:29.223Z,101154.65
2017-10-23T12:54:57.639Z,101156.69
2017-10-23T12:57:26.006Z,101155.30
2017-10-23T12:59:55.083Z,101154.31
2017-10-23T13:02:23.524Z,101155.87
2017-10-23T13:04:51.813Z,101160.05
2017-10-23T13:07:20.150Z,101159.88
2017-10-23T13:09:48.394Z,101162.66
2017-10-23T13:12:16.833Z,101157.91
2017-10-23T13:14:45.296Z,101163.35
2017-10-23T13:17:13.636Z,101166.30
2017-10-23T13:19:41.992Z,101158.19
2017-10-23T13:22:10.333Z,101166.38
2017-10-23T13:24:38.615Z,101172.11
2017-10-23T13:27:07.116Z,101163.52
2017-10-23T13:29:35.564Z,101164.91
2017-10-23T13:32:03.867Z,101171.88
2017-10-23T13:34:32.148Z,101165.89
2017-10-23T13:37:00.488Z,101173.27
2017-10-23T13:39:28.795Z,101169.83
2017-10-23T13:41:57.587Z,101175.06
2017-10-23T13:44:26.039Z,101174.90
2017-10-23T13:46:54.406Z,101178.67
2017-10-23T13:49:23.391Z,101187.36
2017-10-23T13:51:51.713Z,101184.00
2017-10-23T13:54:20.032Z,101195.38
2017-10-23T13:56:48.503Z,101195.91
2017-10-23T13:59:17.435Z,101197.30
2017-10-23T14:01:45.783Z,101203.90
2017-10-23T14:04:14.096Z,101208.66
2017-10-23T14:06:42.403Z,101209.64
2017-10-23T14:09:10.715Z,101208.82
2017-10-23T14:11:39.173Z,101209.47
2017-10-23T14:14:07.618Z,101214.62
2017-10-23T14:16:35.954Z,101214.46
2017-10-23T14:19:04.587Z,101212.50
2017-10-23T14:21:32.891Z,101215.45
2017-10-23T14:24:01.327Z,101217.73
2017-10-23T14:26:30.230Z,101214.41
2017-10-23T14:28:58.718Z,101218.01
2017-10-23T14:31:27.269Z,101219.73
2017-10-23T14:33:55.536Z,101222.93
2017-10-23T14:36:23.980Z,101229.89
2017-10-23T14:38:52.443Z,101234.31
2017-10-23T14:41:20.859Z,101228.41
2017-10-23T14:43:50.026Z,101234.31
2017-10-23T14:46:18.395Z,101239.06
2017-10-23T14:48:47.428Z,101235.20
2017-10-23T14:51:15.763Z,101231.14
2017-10-23T14:53:44.143Z,101241.22
2017-10-23T14:56:12.477Z,101232.29
2017-10-23T14:58:40.824Z,101230.73
2017-10-23T15:01:10.921Z,101235.09
2017-10-23T15:03:39.228Z,101238.44
2017-10-23T15:06:07.555Z,101245.69
2017-10-23T15:08:35.875Z,101243.55
2017-10-23T15:11:04.356Z,101240.81
2017-10-23T15:13:32.691Z,101251.38
2017-10-23T15:16:01.929Z,101256.85
2017-10-23T15:18:30.238Z,101256.32
2017-10-23T15:20:58.559Z,101258.32
2017-10-23T15:23:26.834Z,101256.85
2017-10-23T15:25:55.203Z,101263.98
2017-10-23T15:28:23.500Z,101258.58
2017-10-23T15:30:51.965Z,101252.97
2017-10-23T15:33:20.412Z,101265.38
2017-10-23T15:35:48.700Z,101266.94
2017-10-23T15:38:16.988Z,101271.36
2017-10-23T15:40:45.721Z,101275.80
2017-10-23T15:43:14.108Z,101280.00
2017-10-23T15:45:42.459Z,101281.75
2017-10-23T15:48:10.748Z,101279.21
2017-10-23T15:50:39.041Z,101283.67
2017-10-23T15:53:07.364Z,101287.03
2017-10-23T15:55:35.671Z,101285.04
2017-10-23T15:58:04.019Z,101292.73
2017-10-23T16:00:32.649Z,101294.41
2017-10-23T16:03:00.964Z,101291.21
2017-10-23T16:05:29.269Z,101296.69
2017-10-23T16:07:57.727Z,101295.77
2017-10-23T16:10:26.063Z,101295.81
2017-10-23T16:12:54.388Z,101300.70
2017-10-23T16:15:22.960Z,101301.39
2017-10-23T16:17:51.340Z,101303.27
2017-10-23T16:20:19.736Z,101296.67
2017-10-23T16:22:48.195Z,101311.81
2017-10-23T16:25:16.503Z,101306.61
2017-10-23T16:27:44.963Z,101311.27
2017-10-23T16:30:13.312Z,101313.82
2017-10-23T16:32:41.699Z,101312.73
2017-10-23T16:35:10.228Z,101319.30
2017-10-23T16:37:38.809Z,101316.36
2017-10-23T16:40:07.112Z,101323.16
2017-10-23T16:42:35.551Z,101330.19
2017-10-23T16:45:04.037Z,101329.42
2017-10-23T16:47:32.382Z,101328.32
2017-10-23T16:50:00.635Z,101327.50
2017-10-23T16:52:29.196Z,101329.88
2017-10-23T16:54:57.463Z,101333.31
2017-10-23T16:57:25.887Z,101335.91
2017-10-23T16:59:54.209Z,101330.72
2017-10-23T17:02:22.616Z,101340.88
2017-10-23T17:04:50.879Z,101343.52
2017-10-23T17:07:19.404Z,101345.16
2017-10-23T17:09:47.676Z,101346.88
2017-10-23T17:12:16.192Z,101351.87
2017-10-23T17:14:44.468Z,101358.19
2017-10-23T17:17:12.852Z,101367.33
2017-10-23T17:19:41.151Z,101367.17
2017-10-23T17:22:09.510Z,101373.58
2017-10-23T17:24:37.977Z,101374.11
2017-10-23T17:27:07.308Z,101372.89
2017-10-23T17:29:35.937Z,101377.16
2017-10-23T17:32:04.273Z,101384.23
2017-10-23T17:34:32.723Z,101388.25
2017-10-23T17:37:01.207Z,101389.69
2017-10-23T17:39:29.807Z,101388.47
2017-10-23T17:41:58.158Z,101389.94
2017-10-23T17:44:26.659Z,101397.72
2017-10-23T17:46:55.235Z,101403.41
2017-10-23T17:49:23.594Z,101405.55
2017-10-23T17:51:52.105Z,101410.49
2017-10-23T17:54:20.367Z,101407.09
2017-10-23T17:56:49.263Z,101410.01
2017-10-23T17:59:17.720Z,101410.30
2017-10-23T18:01:46.242Z,101410.70
2017-10-23T18:04:15.828Z,101413.48
2017-10-23T18:06:44.123Z,101415.58
2017-10-23T18:09:12.434Z,101418.16
2017-10-23T18:11:40.828Z,101414.11
2017-10-23T18:14:09.456Z,101422.66
2017-10-23T18:16:38.273Z,101421.84
2017-10-23T18:19:06.713Z,101424.22
2017-10-23T18:21:35.081Z,101426.19
2017-10-23T18:24:03.453Z,101429.80
2017-10-23T18:26:31.843Z,101429.67
2017-10-23T18:29:01.191Z,101431.31
2017-10-23T18:31:29.780Z,101433.40
2017-10-23T18:33:58.110Z,101429.63
2017-10-23T18:36:26.605Z,101440.48
2017-10-23T18:38:55.328Z,101436.43
2017-10-23T18:41:23.751Z,101450.94
2017-10-23T18:43:52.382Z,101451.02
2017-10-23T18:46:20.729Z,101455.16
2017-10-23T18:48:49.166Z,101453.52
2017-10-23T18:51:17.488Z,101459.17
2017-10-23T18:53:45.963Z,101462.70
2017-10-23T18:56:14.311Z,101454.75
2017-10-23T18:58:42.672Z,101459.91
2017-10-23T19:01:10.991Z,101452.03
2017-10-23T19:03:39.451Z,101455.97
2017-10-23T19:06:07.786Z,101459.09
2017-10-23T19:08:36.155Z,101466.42
2017-10-23T19:11:04.532Z,101465.64
2017-10-23T19:13:32.847Z,101463.80
2017-10-23T19:16:01.405Z,101470.02
2017-10-23T19:18:29.992Z,101468.38
2017-10-23T19:20:59.802Z,101464.37
2017-10-23T19:23:28.307Z,101469.05
2017-10-23T19:25:57.803Z,101468.55
2017-10-23T19:28:26.147Z,101469.70
2017-10-23T19:30:54.500Z,101465.56
2017-10-23T19:33:23.073Z,101473.22
2017-10-23T19:35:51.567Z,101484.03
2017-10-23T19:38:19.867Z,101479.28
2017-10-23T19:40:48.197Z,101475.88
2017-10-23T19:43:16.599Z,101485.30
2017-10-23T19:45:45.041Z,101486.00
2017-10-23T19:48:13.539Z,101488.55
2017-10-23T19:50:41.841Z,101488.46
2017-10-23T19:53:10.224Z,101486.66
2017-10-23T19:55:38.601Z,101494.53
2017-10-23T19:58:07.020Z,101493.13
2017-10-23T20:00:35.987Z,101494.67
2017-10-23T20:03:04.926Z,101498.12
2017-10-23T20:05:33.239Z,101487.37
2017-10-23T20:08:02.552Z,101492.91
2017-10-23T20:10:31.311Z,101499.30
2017-10-23T20:12:59.697Z,101502.75
2017-10-23T20:15:28.528Z,101503.33
2017-10-23T20:17:57.413Z,101510.38
2017-10-23T20:20:25.756Z,101511.36
2017-10-23T20:22:54.122Z,101512.83
2017-10-23T20:25:22.654Z,101507.01
2017-10-23T20:27:51.047Z,101514.39
2017-10-23T20:30:19.572Z,101508.98
2017-10-23T20:32:47.860Z,101505.86
2017-10-23T20:35:16.652Z,101513.41
2017-10-23T20:37:45.030Z,101513.04
2017-10-23T20:40:13.499Z,101519.80
2017-10-23T20:42:41.968Z,101520.98
2017-10-23T20:45:10.720Z,101517.41
2017-10-23T20:47:39.128Z,101527.58
2017-10-23T20:50:08.308Z,101519.22
2017-10-23T20:52:36.596Z,101524.38
2017-10-23T20:55:05.503Z,101522.53
2017-10-23T20:57:34.109Z,101524.30
2017-10-23T21:00:03.760Z,101529.39
2017-10-23T21:02:33.582Z,101525.00
2017-10-23T21:05:02.235Z,101529.34
2017-10-23T21:07:30.662Z,101527.05
2017-10-23T21:09:59.192Z,101533.61
2017-10-23T21:12:27.736Z,101526.19
2017-10-23T21:14:56.307Z,101526.92
2017-10-23T21:17:24.638Z,101529.71
2017-10-23T21:19:52.927Z,101525.86
2017-10-23T21:22:21.228Z,101534.14
2017-10-23T21:24:49.486Z,101531.14
2017-10-23T21:27:17.777Z,101538.69
2017-10-23T21:29:46.060Z,101538.36
2017-10-23T21:32:14.393Z,101541.55
2017-10-23T21:34:42.704Z,101538.52
2017-10-23T21:37:11.116Z,101543.24
2017-10-23T21:39:39.459Z,101538.52
2017-10-23T21:42:08.395Z,101548.36
2017-10-23T21:44:37.395Z,101545.98
2017-10-23T21:47:10.531Z,101554.09
2017-10-23T21:49:38.887Z,101552.45
2017-10-23T21:52:08.163Z,101555.24
2017-10-23T21:54:36.572Z,101557.38
2017-10-23T21:57:05.003Z,101561.55
2017-10-23T21:59:33.332Z,101564.95
2017-10-23T22:02:01.644Z,101564.53
2017-10-23T22:04:29.980Z,101563.31
2017-10-23T22:06:58.427Z,101570.68
2017-10-23T22:09:26.734Z,101562.16
2017-10-23T22:11:55.083Z,101561.34
2017-10-23T22:14:23.370Z,101562.89
2017-10-23T22:16:51.833Z,101562.48
2017-10-23T22:19:20.327Z,101570.44
2017-10-23T22:21:48.638Z,101578.95
2017-10-23T22:24:17.035Z,101572.89
2017-10-23T22:26:45.515Z,101576.78
2017-10-23T22:29:13.795Z,101582.34
2017-10-23T22:31:42.675Z,101583.09
2017-10-23T22:34:11.168Z,101585.46
2017-10-23T22:36:40.021Z,101593.11
2017-10-23T22:39:08.283Z,101585.57
2017-10-23T22:41:36.667Z,101589.75
2017-10-23T22:44:04.955Z,101588.36
2017-10-23T22:46:33.291Z,101597.45
2017-10-23T22:49:01.609Z,101594.12
2017-10-23T22:51:29.928Z,101596.50
2017-10-23T22:53:58.415Z,101597.13
2017-10-23T22:56:26.730Z,101603.52
2017-10-23T22:58:55.027Z,101599.03
2017-10-23T23:01:23.316Z,101606.16
2017-10-23T23:03:51.732Z,101603.70
2017-10-23T23:06:20.041Z,101606.27
2017-10-23T23:08:48.471Z,101608.41
2017-10-23T23:11:17.188Z,101611.90
2017-10-23T23:13:45.479Z,101610.94
2017-10-23T23:16:13.944Z,101613.23
2017-10-23T23:18:42.219Z,101607.66
2017-10-23T23:21:10.551Z,101611.95
2017-10-23T23:23:38.955Z,101617.84
2017-10-23T23:26:07.298Z,101622.18
2017-10-23T23:28:35.580Z,101626.86
2017-10-23T23:31:03.916Z,101626.52
2017-10-23T23:33:32.252Z,101625.12
2017-10-23T23:36:00.652Z,101632.20
2017-10-23T23:38:29.880Z,101629.58
2017-10-23T23:40:58.181Z,101631.70
2017-10-23T23:43:26.579Z,101640.47
2017-10-23T23:45:54.879Z,101644.39
2017-10-23T23:48:23.130Z,101642.22
2017-10-23T23:50:51.485Z,101649.59
2017-10-23T23:53:19.796Z,101649.59
2017-10-23T23:55:48.128Z,101647.70
2017-10-23T23:58:16.451Z,101642.12
